createdAt,value
2017-11-24T00:01:47.557Z,3.00
2017-11-24T00:04:14.301Z,2.87
2017-11-24T00:06:41.041Z,2.83
2017-11-24T00:09:07.784Z,3.00
2017-11-24T00:11:34.518Z,3.20
2017-11-24T00:14:01.256Z,3.00
2017-11-24T00:16:28.012Z,3.63
2017-11-24T00:18:54.787Z,2.60
2017-11-24T00:21:22.286Z,2.43
2017-11-24T00:23:49.025Z,3.10
2017-11-24T00:26:15.776Z,2.33
2017-11-24T00:28:42.507Z,3.20
2017-11-24T00:31:09.269Z,3.53
2017-11-24T00:33:36.034Z,2.80
2017-11-24T00:36:03.553Z,2.67
2017-11-24T00:38:30.472Z,3.87
2017-11-24T00:40:57.225Z,2.80
2017-11-24T00:43:23.961Z,2.33
2017-11-24T00:45:50.717Z,2.33
2017-11-24T00:48:17.460Z,2.70
2017-11-24T00:50:44.193Z,3.30
2017-11-24T00:53:11.750Z,3.63
2017-11-24T00:55:38.660Z,3.50
2017-11-24T00:58:05.425Z,2.50
2017-11-24T01:00:32.151Z,3.27
2017-11-24T01:02:58.889Z,2.77
2017-11-24T01:05:25.616Z,2.37
2017-11-24T01:07:52.369Z,3.10
2017-11-24T01:10:19.097Z,2.70
2017-11-24T01:12:45.845Z,3.53
2017-11-24T01:15:12.586Z,3.00
2017-11-24T01:17:39.335Z,2.57
2017-11-24T01:20:06.069Z,3.10
2017-11-24T01:22:32.841Z,2.90
2017-11-24T01:24:59.599Z,3.43
2017-11-24T01:27:27.860Z,3.00
2017-11-24T01:29:54.617Z,3.03
2017-11-24T01:32:22.133Z,2.73
2017-11-24T01:34:48.900Z,2.80
2017-11-24T01:37:15.616Z,3.13
2017-11-24T01:39:42.384Z,3.70
2017-11-24T01:42:09.896Z,2.40
2017-11-24T01:44:36.668Z,2.60
2017-11-24T01:47:03.410Z,2.50
2017-11-24T01:49:30.142Z,2.50
2017-11-24T01:51:56.886Z,2.53
2017-11-24T01:54:23.625Z,2.77
2017-11-24T01:56:51.162Z,2.67
2017-11-24T01:59:17.926Z,2.90
2017-11-24T02:01:45.440Z,2.27
2017-11-24T02:04:12.176Z,2.67
2017-11-24T02:06:38.925Z,2.57
2017-11-24T02:09:05.705Z,3.10
2017-11-24T02:11:33.227Z,3.00
2017-11-24T02:13:59.964Z,2.80
2017-11-24T02:16:26.765Z,2.80
2017-11-24T02:18:53.507Z,2.87
2017-11-24T02:21:20.338Z,2.97
2017-11-24T02:23:47.072Z,2.90
2017-11-24T02:26:14.583Z,2.83
2017-11-24T02:28:41.310Z,3.33
2017-11-24T02:31:08.065Z,3.33
2017-11-24T02:33:34.914Z,3.10
2017-11-24T02:36:01.639Z,4.10
2017-11-24T02:38:28.387Z,3.47
2017-11-24T02:40:55.137Z,3.57
2017-11-24T02:43:21.878Z,3.70
2017-11-24T02:45:48.614Z,4.70
2017-11-24T02:48:15.590Z,3.83
2017-11-24T02:50:43.089Z,4.30
2017-11-24T02:53:09.873Z,4.10
2017-11-24T02:55:37.389Z,4.07
2017-11-24T02:58:04.109Z,3.60
2017-11-24T03:00:30.855Z,4.40
2017-11-24T03:02:57.589Z,4.20
2017-11-24T03:05:24.352Z,4.83
2017-11-24T03:07:51.065Z,4.10
2017-11-24T03:10:17.836Z,4.10
2017-11-24T03:12:44.572Z,3.90
2017-11-24T03:15:11.319Z,3.70
2017-11-24T03:17:38.129Z,4.17
2017-11-24T03:20:04.853Z,4.33
2017-11-24T03:22:31.632Z,4.40
2017-11-24T03:24:58.392Z,4.90
2017-11-24T03:27:25.879Z,4.77
2017-11-24T03:29:52.670Z,5.03
2017-11-24T03:32:19.413Z,4.87
2017-11-24T03:34:46.160Z,5.47
2017-11-24T03:37:13.693Z,4.67
2017-11-24T03:39:40.439Z,4.83
2017-11-24T03:42:08.696Z,4.90
2017-11-24T03:44:35.437Z,5.80
2017-11-24T03:47:02.167Z,6.03
2017-11-24T03:49:28.900Z,6.10
2017-11-24T03:51:55.643Z,5.87
2017-11-24T03:54:22.381Z,5.97
2017-11-24T03:56:49.118Z,5.03
2017-11-24T03:59:15.876Z,5.20
2017-11-24T04:01:42.607Z,6.00
2017-11-24T04:04:09.352Z,7.00
2017-11-24T04:06:36.125Z,6.50
2017-11-24T04:09:02.924Z,7.60
2017-11-24T04:11:29.658Z,7.03
2017-11-24T04:13:56.392Z,7.33
2017-11-24T04:16:23.139Z,7.07
2017-11-24T04:18:49.865Z,6.33
2017-11-24T04:21:16.615Z,6.27
2017-11-24T04:23:43.350Z,6.90
2017-11-24T04:26:10.079Z,7.23
2017-11-24T04:28:36.797Z,7.57
2017-11-24T04:31:03.529Z,6.73
2017-11-24T04:33:30.455Z,9.00
2017-11-24T04:35:57.188Z,7.93
2017-11-24T04:38:23.937Z,9.00
2017-11-24T04:40:51.423Z,8.77
2017-11-24T04:43:18.193Z,8.87
2017-11-24T04:45:44.926Z,7.87
2017-11-24T04:48:11.678Z,8.50
2017-11-24T04:50:38.427Z,8.33
2017-11-24T04:53:05.132Z,8.77
2017-11-24T04:55:31.902Z,9.90
2017-11-24T04:57:58.633Z,9.17
2017-11-24T05:00:25.380Z,10.80
2017-11-24T05:02:52.115Z,9.83
2017-11-24T05:05:18.873Z,9.17
2017-11-24T05:07:45.602Z,9.97
2017-11-24T05:10:12.333Z,9.33
2017-11-24T05:12:39.088Z,11.90
2017-11-24T05:15:05.837Z,9.80
2017-11-24T05:17:33.348Z,10.63
2017-11-24T05:20:00.151Z,10.67
2017-11-24T05:22:26.925Z,9.83
2017-11-24T05:24:53.642Z,9.60
2017-11-24T05:27:20.427Z,10.27
2017-11-24T05:29:47.241Z,8.57
2017-11-24T05:32:13.996Z,7.60
2017-11-24T05:34:40.741Z,7.57
2017-11-24T05:37:07.526Z,6.63
2017-11-24T05:39:34.256Z,7.33
2017-11-24T05:42:01.753Z,7.50
2017-11-24T05:44:28.782Z,6.87
2017-11-24T05:46:55.556Z,7.50
2017-11-24T05:49:22.371Z,7.50
2017-11-24T05:51:49.114Z,7.87
2017-11-24T05:54:15.880Z,7.00
2017-11-24T05:56:42.620Z,7.13
2017-11-24T05:59:09.373Z,7.30
2017-11-24T06:01:36.179Z,8.50
2017-11-24T06:04:02.989Z,8.60
2017-11-24T06:06:30.486Z,9.10
2017-11-24T06:08:57.241Z,10.03
2017-11-24T06:11:24.022Z,7.47
2017-11-24T06:13:50.733Z,7.70
2017-11-24T06:16:17.472Z,6.93
2017-11-24T06:18:44.213Z,6.03
2017-11-24T06:21:10.947Z,5.50
2017-11-24T06:23:38.605Z,6.53
2017-11-24T06:26:05.353Z,5.83
2017-11-24T06:28:32.878Z,6.83
2017-11-24T06:30:59.609Z,5.83
2017-11-24T06:33:26.344Z,6.87
2017-11-24T06:35:53.102Z,6.07
2017-11-24T06:38:19.830Z,5.93
2017-11-24T06:40:46.556Z,5.57
2017-11-24T06:43:13.418Z,4.63
2017-11-24T06:45:40.159Z,5.63
2017-11-24T06:48:06.889Z,5.87
2017-11-24T06:50:33.660Z,5.70
2017-11-24T06:53:00.414Z,6.77
2017-11-24T06:55:27.909Z,6.40
2017-11-24T06:57:54.674Z,7.20
2017-11-24T07:00:21.432Z,9.23
2017-11-24T07:02:48.937Z,10.00
2017-11-24T07:05:15.697Z,8.23
2017-11-24T07:07:42.432Z,9.40
2017-11-24T07:10:09.159Z,10.53
2017-11-24T07:12:35.907Z,12.03
2017-11-24T07:15:02.658Z,8.17
2017-11-24T07:17:29.399Z,7.23
2017-11-24T07:19:56.118Z,7.27
2017-11-24T07:22:22.864Z,7.60
2017-11-24T07:24:49.609Z,8.27
2017-11-24T07:27:16.345Z,8.97
2017-11-24T07:29:43.172Z,9.83
2017-11-24T07:32:09.914Z,9.93
2017-11-24T07:34:36.693Z,10.57
2017-11-24T07:37:03.431Z,8.83
2017-11-24T07:39:30.176Z,7.97
2017-11-24T07:41:56.924Z,5.43
2017-11-24T07:44:23.669Z,5.30
2017-11-24T07:46:51.241Z,5.30
2017-11-24T07:49:18.762Z,6.20
2017-11-24T07:51:45.539Z,6.60
2017-11-24T07:54:13.057Z,7.43
2017-11-24T07:56:39.777Z,7.03
2017-11-24T07:59:06.537Z,7.50
2017-11-24T08:01:33.317Z,7.90
2017-11-24T08:04:00.041Z,9.53
2017-11-24T08:06:27.547Z,9.93
2017-11-24T08:08:54.284Z,9.70
2017-11-24T08:11:21.038Z,11.20
2017-11-24T08:13:47.787Z,12.23
2017-11-24T08:16:14.517Z,12.40
2017-11-24T08:18:42.026Z,12.97
2017-11-24T08:21:08.781Z,11.97
2017-11-24T08:23:35.537Z,11.37
2017-11-24T08:26:02.281Z,11.53
2017-11-24T08:28:29.048Z,10.17
2017-11-24T08:30:55.773Z,9.20
2017-11-24T08:33:22.550Z,9.97
2017-11-24T08:35:49.292Z,8.90
2017-11-24T08:38:16.033Z,10.30
2017-11-24T08:40:42.781Z,10.17
2017-11-24T08:43:09.534Z,9.93
2017-11-24T08:45:36.257Z,10.90
2017-11-24T08:48:03.029Z,10.07
2017-11-24T08:50:29.812Z,10.47
2017-11-24T08:52:57.309Z,10.30
2017-11-24T08:55:24.040Z,10.77
2017-11-24T08:57:50.970Z,10.57
2017-11-24T09:00:18.461Z,11.40
2017-11-24T09:02:45.252Z,10.10
2017-11-24T09:05:12.769Z,10.70
2017-11-24T09:07:39.507Z,10.50
2017-11-24T09:10:06.260Z,8.60
2017-11-24T09:12:34.500Z,8.50
2017-11-24T09:15:01.280Z,8.03
2017-11-24T09:17:28.017Z,8.37
2017-11-24T09:19:55.535Z,7.47
2017-11-24T09:22:22.414Z,8.60
2017-11-24T09:24:49.146Z,7.97
2017-11-24T09:27:15.903Z,7.27
2017-11-24T09:29:43.402Z,9.23
2017-11-24T09:32:10.149Z,9.90
2017-11-24T09:34:36.893Z,9.10
2017-11-24T09:37:03.657Z,9.60
2017-11-24T09:39:30.389Z,8.63
2017-11-24T09:41:57.157Z,8.60
2017-11-24T09:44:24.822Z,9.70
2017-11-24T09:46:52.364Z,10.33
2017-11-24T09:49:19.096Z,10.27
2017-11-24T09:51:45.828Z,10.90
2017-11-24T09:54:12.585Z,11.50
2017-11-24T09:56:40.096Z,11.10
2017-11-24T09:59:06.841Z,11.57
2017-11-24T10:01:33.588Z,11.20
2017-11-24T10:04:00.343Z,9.70
2017-11-24T10:06:27.074Z,9.90
2017-11-24T10:08:53.829Z,10.67
2017-11-24T10:11:20.735Z,8.47
2017-11-24T10:13:47.449Z,8.87
2017-11-24T10:16:14.176Z,9.13
2017-11-24T10:18:40.931Z,9.37
2017-11-24T10:21:07.685Z,8.07
2017-11-24T10:23:34.605Z,7.90
2017-11-24T10:26:02.117Z,8.63
2017-11-24T10:28:28.856Z,7.20
2017-11-24T10:30:55.601Z,8.40
2017-11-24T10:33:22.344Z,8.73
2017-11-24T10:35:49.179Z,9.07
2017-11-24T10:38:15.933Z,9.10
2017-11-24T10:40:42.760Z,10.23
2017-11-24T10:43:09.499Z,9.87
2017-11-24T10:45:36.276Z,9.63
2017-11-24T10:48:03.786Z,9.43
2017-11-24T10:50:30.545Z,11.07
2017-11-24T10:52:57.306Z,10.53
2017-11-24T10:55:24.807Z,10.27
2017-11-24T10:57:51.541Z,9.83
2017-11-24T11:00:18.303Z,8.80
2017-11-24T11:02:45.108Z,9.63
2017-11-24T11:05:11.841Z,9.07
2017-11-24T11:07:38.587Z,9.33
2017-11-24T11:10:05.317Z,9.50
2017-11-24T11:12:32.102Z,9.40
2017-11-24T11:14:58.816Z,8.57
2017-11-24T11:17:25.701Z,7.90
2017-11-24T11:19:52.445Z,8.03
2017-11-24T11:22:19.981Z,7.30
2017-11-24T11:24:46.808Z,8.07
2017-11-24T11:27:13.639Z,7.57
2017-11-24T11:29:40.369Z,7.03
2017-11-24T11:32:07.349Z,6.87
2017-11-24T11:34:34.102Z,7.37
2017-11-24T11:37:00.891Z,6.80
2017-11-24T11:39:27.886Z,6.33
2017-11-24T11:41:54.722Z,7.00
2017-11-24T11:44:21.474Z,7.30
2017-11-24T11:46:48.219Z,7.73
2017-11-24T11:49:15.725Z,9.90
2017-11-24T11:51:42.550Z,9.33
2017-11-24T11:54:09.270Z,9.40
2017-11-24T11:56:36.001Z,10.83
2017-11-24T11:59:04.743Z,10.93
2017-11-24T12:01:31.493Z,13.77
2017-11-24T12:03:58.221Z,14.20
2017-11-24T12:06:24.969Z,13.63
2017-11-24T12:08:52.487Z,13.90
2017-11-24T12:11:19.252Z,15.23
2017-11-24T12:13:45.989Z,15.50
2017-11-24T12:16:12.755Z,15.73
2017-11-24T12:18:39.501Z,14.73
2017-11-24T12:21:07.011Z,13.47
2017-11-24T12:23:33.752Z,13.33
2017-11-24T12:26:00.676Z,13.70
2017-11-24T12:28:27.531Z,13.10
2017-11-24T12:30:54.303Z,12.57
2017-11-24T12:33:21.034Z,12.23
2017-11-24T12:35:47.785Z,11.07
2017-11-24T12:38:14.512Z,12.33
2017-11-24T12:40:41.257Z,12.37
2017-11-24T12:43:08.015Z,11.33
2017-11-24T12:45:35.520Z,10.83
2017-11-24T12:48:02.269Z,12.50
2017-11-24T12:50:28.992Z,12.47
2017-11-24T12:52:55.745Z,11.83
2017-11-24T12:55:22.500Z,12.40
2017-11-24T12:57:49.248Z,10.87
2017-11-24T13:00:15.976Z,10.23
2017-11-24T13:02:42.780Z,9.83
2017-11-24T13:05:10.260Z,11.03
2017-11-24T13:07:36.999Z,11.13
2017-11-24T13:10:03.759Z,10.80
2017-11-24T13:12:30.501Z,10.80
2017-11-24T13:14:57.228Z,11.17
2017-11-24T13:17:23.992Z,9.70
2017-11-24T13:19:50.742Z,9.27
2017-11-24T13:22:18.270Z,9.53
2017-11-24T13:24:46.504Z,9.23
2017-11-24T13:27:13.316Z,9.10
2017-11-24T13:29:40.937Z,9.43
2017-11-24T13:32:07.701Z,8.47
2017-11-24T13:34:35.214Z,8.13
2017-11-24T13:37:01.958Z,7.70
2017-11-24T13:39:28.703Z,8.37
2017-11-24T13:41:55.437Z,8.60
2017-11-24T13:44:22.189Z,8.17
2017-11-24T13:46:48.921Z,9.40
2017-11-24T13:49:15.768Z,9.43
2017-11-24T13:51:42.523Z,9.83
2017-11-24T13:54:09.284Z,10.00
2017-11-24T13:56:36.850Z,10.37
2017-11-24T13:59:03.585Z,10.10
2017-11-24T14:01:31.924Z,11.93
2017-11-24T14:03:59.624Z,12.50
2017-11-24T14:06:26.358Z,11.93
2017-11-24T14:08:53.106Z,12.23
2017-11-24T14:11:19.834Z,12.63
2017-11-24T14:13:47.373Z,12.90
2017-11-24T14:16:14.092Z,12.80
2017-11-24T14:18:40.833Z,13.40
2017-11-24T14:21:07.584Z,13.00
2017-11-24T14:23:34.342Z,13.53
2017-11-24T14:26:02.090Z,13.30
2017-11-24T14:28:29.618Z,13.17
2017-11-24T14:30:56.357Z,12.90
2017-11-24T14:33:23.087Z,13.20
2017-11-24T14:35:49.874Z,13.10
2017-11-24T14:38:16.592Z,13.83
2017-11-24T14:40:43.374Z,12.97
2017-11-24T14:43:10.149Z,14.00
2017-11-24T14:45:36.936Z,12.70
2017-11-24T14:48:04.464Z,12.77
2017-11-24T14:50:31.207Z,12.63
2017-11-24T14:52:57.952Z,13.63
2017-11-24T14:55:24.670Z,13.77
2017-11-24T14:57:51.472Z,14.27
2017-11-24T15:00:18.932Z,14.17
2017-11-24T15:02:45.689Z,14.03
2017-11-24T15:05:12.425Z,14.23
2017-11-24T15:07:39.336Z,14.13
2017-11-24T15:10:06.098Z,15.40
2017-11-24T15:12:32.845Z,14.87
2017-11-24T15:14:59.600Z,14.97
2017-11-24T15:17:26.350Z,16.03
2017-11-24T15:19:53.099Z,15.90
2017-11-24T15:22:19.873Z,16.47
2017-11-24T15:24:46.633Z,16.63
2017-11-24T15:27:13.383Z,15.07
2017-11-24T15:29:40.145Z,16.57
2017-11-24T15:32:06.871Z,18.73
2017-11-24T15:34:33.627Z,17.40
2017-11-24T15:37:00.482Z,18.13
2017-11-24T15:39:27.224Z,20.17
2017-11-24T15:41:53.949Z,17.57
2017-11-24T15:44:20.703Z,18.00
2017-11-24T15:46:47.422Z,20.17
2017-11-24T15:49:14.195Z,17.77
2017-11-24T15:51:41.709Z,17.03
2017-11-24T15:54:08.466Z,17.53
2017-11-24T15:56:35.204Z,16.50
2017-11-24T15:59:01.990Z,18.47
2017-11-24T16:01:29.538Z,19.10
2017-11-24T16:03:56.234Z,23.13
2017-11-24T16:06:22.997Z,24.43
2017-11-24T16:08:49.742Z,27.97
2017-11-24T16:11:17.232Z,24.60
2017-11-24T16:13:44.058Z,26.23
2017-11-24T16:16:10.792Z,26.07
2017-11-24T16:18:38.309Z,25.80
2017-11-24T16:21:05.016Z,23.47
2017-11-24T16:23:31.781Z,22.37
2017-11-24T16:25:58.541Z,19.30
2017-11-24T16:28:26.067Z,22.07
2017-11-24T16:30:52.833Z,21.30
2017-11-24T16:33:19.581Z,21.40
2017-11-24T16:35:46.340Z,20.87
2017-11-24T16:38:13.816Z,20.80
2017-11-24T16:40:40.592Z,20.10
2017-11-24T16:43:07.312Z,20.97
2017-11-24T16:45:34.138Z,19.73
2017-11-24T16:48:00.865Z,20.20
2017-11-24T16:50:27.746Z,19.60
2017-11-24T16:52:54.514Z,19.93
2017-11-24T16:55:21.245Z,19.63
2017-11-24T16:57:48.162Z,20.83
2017-11-24T17:00:14.918Z,22.67
2017-11-24T17:02:41.649Z,21.13
2017-11-24T17:05:08.384Z,22.17
2017-11-24T17:07:35.163Z,21.40
2017-11-24T17:10:01.912Z,21.10
2017-11-24T17:12:29.429Z,19.50
2017-11-24T17:14:56.157Z,18.97
2017-11-24T17:17:22.904Z,20.17
2017-11-24T17:19:49.643Z,25.10
2017-11-24T17:22:16.527Z,23.47
2017-11-24T17:24:43.244Z,24.30
2017-11-24T17:27:10.253Z,23.67
2017-11-24T17:29:36.957Z,23.67
2017-11-24T17:32:03.706Z,23.63
2017-11-24T17:34:30.645Z,26.57
2017-11-24T17:36:57.382Z,22.97
2017-11-24T17:39:24.109Z,24.90
2017-11-24T17:41:50.941Z,23.67
2017-11-24T17:44:17.655Z,24.40
2017-11-24T17:46:44.411Z,23.10
2017-11-24T17:49:11.154Z,23.83
2017-11-24T17:51:37.950Z,26.07
2017-11-24T17:54:04.672Z,28.40
2017-11-24T17:56:31.455Z,38.23
2017-11-24T17:58:58.170Z,28.47
2017-11-24T18:01:24.936Z,26.37
2017-11-24T18:03:52.433Z,31.13
2017-11-24T18:06:19.157Z,30.77
2017-11-24T18:08:45.964Z,27.17
2017-11-24T18:11:13.023Z,28.67
2017-11-24T18:13:39.754Z,28.10
2017-11-24T18:16:06.542Z,27.90
2017-11-24T18:18:34.039Z,27.57
2017-11-24T18:21:01.053Z,29.80
2017-11-24T18:23:27.840Z,27.93
2017-11-24T18:25:54.695Z,27.40
2017-11-24T18:28:21.464Z,29.20
2017-11-24T18:30:48.215Z,34.27
2017-11-24T18:33:15.778Z,34.63
2017-11-24T18:35:42.616Z,32.17
2017-11-24T18:38:09.356Z,32.33
2017-11-24T18:40:36.091Z,31.30
2017-11-24T18:43:02.852Z,30.30
2017-11-24T18:45:29.609Z,28.03
2017-11-24T18:47:56.352Z,26.53
2017-11-24T18:50:23.114Z,26.10
2017-11-24T18:52:49.850Z,26.27
2017-11-24T18:55:17.390Z,27.13
2017-11-24T18:57:44.134Z,26.03
2017-11-24T19:00:11.686Z,26.80
2017-11-24T19:02:38.404Z,25.87
2017-11-24T19:05:05.159Z,25.83
2017-11-24T19:07:31.878Z,25.40
2017-11-24T19:09:58.668Z,26.57
2017-11-24T19:12:26.157Z,26.97
2017-11-24T19:14:52.919Z,27.37
2017-11-24T19:17:19.690Z,27.73
2017-11-24T19:19:46.515Z,26.23
2017-11-24T19:22:13.272Z,26.80
2017-11-24T19:24:40.783Z,26.07
2017-11-24T19:27:07.527Z,26.60
2017-11-24T19:29:34.272Z,26.43
2017-11-24T19:32:01.020Z,25.83
2017-11-24T19:34:27.764Z,26.03
2017-11-24T19:36:54.562Z,26.47
2017-11-24T19:39:21.326Z,27.27
2017-11-24T19:41:48.115Z,25.23
2017-11-24T19:44:15.623Z,25.37
2017-11-24T19:46:42.418Z,26.60
2017-11-24T19:49:09.196Z,25.33
2017-11-24T19:51:35.944Z,32.20
2017-11-24T19:54:02.709Z,32.73
2017-11-24T19:56:29.490Z,37.67
2017-11-24T19:58:56.253Z,38.43
2017-11-24T20:01:22.999Z,30.50
2017-11-24T20:03:49.797Z,27.20
2017-11-24T20:06:16.586Z,25.83
2017-11-24T20:08:43.484Z,26.23
2017-11-24T20:11:10.276Z,26.40
2017-11-24T20:13:37.016Z,25.60
2017-11-24T20:16:03.789Z,26.23
2017-11-24T20:18:31.312Z,27.33
2017-11-24T20:20:58.065Z,26.47
2017-11-24T20:23:24.809Z,25.80
2017-11-24T20:25:52.341Z,26.77
2017-11-24T20:28:19.191Z,26.33
2017-11-24T20:30:45.921Z,26.00
2017-11-24T20:33:12.675Z,25.50
2017-11-24T20:35:40.259Z,29.60
2017-11-24T20:38:07.742Z,26.83
2017-11-24T20:40:34.501Z,27.60
2017-11-24T20:43:01.253Z,28.80
2017-11-24T20:45:28.020Z,28.00
2017-11-24T20:47:54.787Z,28.10
2017-11-24T20:50:21.531Z,27.43
2017-11-24T20:52:48.317Z,27.37
2017-11-24T20:55:15.069Z,28.57
2017-11-24T20:57:42.636Z,27.07
2017-11-24T21:00:09.702Z,26.73
2017-11-24T21:02:37.275Z,27.77
2017-11-24T21:05:04.010Z,27.27
2017-11-24T21:07:30.772Z,29.47
2017-11-24T21:09:57.534Z,28.73
2017-11-24T21:12:24.255Z,28.63
2017-11-24T21:14:51.973Z,27.07
2017-11-24T21:17:19.448Z,29.53
2017-11-24T21:19:46.229Z,27.87
2017-11-24T21:22:12.972Z,27.93
2017-11-24T21:24:40.097Z,29.63
2017-11-24T21:27:06.978Z,28.63
2017-11-24T21:29:34.522Z,29.07
2017-11-24T21:32:01.243Z,28.10
2017-11-24T21:34:28.026Z,29.00
2017-11-24T21:36:54.793Z,28.50
2017-11-24T21:39:21.543Z,27.20
2017-11-24T21:41:48.277Z,29.10
2017-11-24T21:44:15.080Z,29.10
2017-11-24T21:46:42.627Z,27.70
2017-11-24T21:49:09.417Z,30.23
2017-11-24T21:51:36.187Z,28.10
2017-11-24T21:54:02.923Z,29.07
2017-11-24T21:56:29.680Z,31.00
2017-11-24T21:58:56.426Z,30.30
2017-11-24T22:01:23.967Z,31.07
2017-11-24T22:03:50.699Z,31.30
2017-11-24T22:06:17.888Z,31.93
2017-11-24T22:08:44.654Z,31.80
2017-11-24T22:11:11.427Z,28.97
2017-11-24T22:13:38.288Z,29.97
2017-11-24T22:16:05.884Z,29.50
2017-11-24T22:18:32.646Z,29.33
2017-11-24T22:20:59.382Z,29.37
2017-11-24T22:23:26.172Z,29.70
2017-11-24T22:25:53.689Z,29.03
2017-11-24T22:28:20.417Z,28.93
2017-11-24T22:30:47.168Z,29.77
2017-11-24T22:33:13.962Z,30.60
2017-11-24T22:35:41.452Z,30.10
2017-11-24T22:38:08.231Z,30.90
2017-11-24T22:40:34.977Z,31.20
2017-11-24T22:43:02.528Z,31.07
2017-11-24T22:45:30.075Z,30.13
2017-11-24T22:47:56.803Z,30.00
2017-11-24T22:50:23.824Z,30.07
2017-11-24T22:52:50.553Z,31.10
2017-11-24T22:55:17.325Z,31.70
2017-11-24T22:57:44.127Z,32.77
2017-11-24T23:00:11.643Z,32.90
2017-11-24T23:02:38.394Z,33.43
2017-11-24T23:05:05.867Z,31.40
2017-11-24T23:07:32.622Z,32.93
2017-11-24T23:09:59.395Z,33.00
2017-11-24T23:12:26.184Z,35.30
2017-11-24T23:14:53.665Z,32.80
2017-11-24T23:17:20.413Z,33.73
2017-11-24T23:19:47.154Z,34.57
2017-11-24T23:22:13.918Z,35.33
2017-11-24T23:24:40.812Z,35.77
2017-11-24T23:27:07.540Z,37.23
2017-11-24T23:29:34.345Z,32.67
2017-11-24T23:32:01.069Z,34.30
2017-11-24T23:34:27.809Z,31.80
2017-11-24T23:36:54.568Z,32.73
2017-11-24T23:39:21.539Z,33.83
2017-11-24T23:41:49.067Z,36.40
2017-11-24T23:44:16.086Z,34.17
2017-11-24T23:46:43.280Z,31.53
2017-11-24T23:49:10.782Z,33.87
2017-11-24T23:51:37.588Z,34.80
2017-11-24T23:54:04.336Z,34.63
2017-11-24T23:56:31.068Z,34.43
2017-11-24T23:58:57.796Z,33.27
